sensor_id;sensor_type;location;lat;lon;timestamp;P1;durP1;ratioP1;P2;durP2;ratioP2
14817;SDS011;7500;57.698;11.986;2022-07-17T00:01:46;12.33;;;3.30;;
14817;SDS011;7500;57.698;11.986;2022-07-17T00:04:13;13.60;;;3.10;;
14817;SDS011;7500;57.698;11.986;2022-07-17T00:06:40;16.73;;;3.40;;
14817;SDS011;7500;57.698;11.986;2022-07-17T00:09:07;12.53;;;3.43;;
14817;SDS011;7500;57.698;11.986;2022-07-17T00:11:34;10.80;;;2.63;;
14817;SDS011;7500;57.698;11.986;2022-07-17T00:14:02;14.23;;;3.40;;
14817;SDS011;7500;57.698;11.986;2022-07-17T00:16:29;14.93;;;3.33;;
14817;SDS011;7500;57.698;11.986;2022-07-17T00:18:56;11.57;;;3.00;;
14817;SDS011;7500;57.698;11.986;2022-07-17T00:21:23;16.10;;;3.73;;
14817;SDS011;7500;57.698;11.986;2022-07-17T00:23:50;14.83;;;3.23;;
14817;SDS011;7500;57.698;11.986;2022-07-17T00:26:17;14.60;;;3.33;;
14817;SDS011;7500;57.698;11.986;2022-07-17T00:28:44;13.00;;;3.30;;
14817;SDS011;7500;57.698;11.986;2022-07-17T00:31:12;14.30;;;3.20;;
14817;SDS011;7500;57.698;11.986;2022-07-17T00:33:39;12.17;;;3.40;;
14817;SDS011;7500;57.698;11.986;2022-07-17T00:36:06;15.77;;;3.67;;
14817;SDS011;7500;57.698;11.986;2022-07-17T00:38:33;13.00;;;3.33;;
14817;SDS011;7500;57.698;11.986;2022-07-17T00:41:00;17.10;;;3.70;;
14817;SDS011;7500;57.698;11.986;2022-07-17T00:43:27;15.23;;;3.97;;
14817;SDS011;7500;57.698;11.986;2022-07-17T00:45:54;13.27;;;3.27;;
14817;SDS011;7500;57.698;11.986;2022-07-17T00:48:24;12.37;;;3.93;;
14817;SDS011;7500;57.698;11.986;2022-07-17T00:50:57;11.97;;;3.50;;
14817;SDS011;7500;57.698;11.986;2022-07-17T00:53:24;15.17;;;3.57;;
14817;SDS011;7500;57.698;11.986;2022-07-17T00:55:51;14.13;;;3.67;;
14817;SDS011;7500;57.698;11.986;2022-07-17T00:58:20;14.13;;;3.20;;
14817;SDS011;7500;57.698;11.986;2022-07-17T01:00:51;17.50;;;4.00;;
14817;SDS011;7500;57.698;11.986;2022-07-17T01:03:19;14.13;;;3.47;;
14817;SDS011;7500;57.698;11.986;2022-07-17T01:05:49;14.93;;;3.90;;
14817;SDS011;7500;57.698;11.986;2022-07-17T01:08:16;13.67;;;3.40;;
14817;SDS011;7500;57.698;11.986;2022-07-17T01:10:43;19.27;;;4.07;;
14817;SDS011;7500;57.698;11.986;2022-07-17T01:13:10;15.47;;;3.37;;
14817;SDS011;7500;57.698;11.986;2022-07-17T01:15:38;15.00;;;3.57;;
14817;SDS011;7500;57.698;11.986;2022-07-17T01:18:06;13.00;;;3.33;;
14817;SDS011;7500;57.698;11.986;2022-07-17T01:20:34;16.37;;;3.53;;
14817;SDS011;7500;57.698;11.986;2022-07-17T01:23:03;20.23;;;3.87;;
14817;SDS011;7500;57.698;11.986;2022-07-17T01:25:30;14.10;;;3.60;;
14817;SDS011;7500;57.698;11.986;2022-07-17T01:27:57;12.07;;;3.40;;
14817;SDS011;7500;57.698;11.986;2022-07-17T01:30:24;19.40;;;3.40;;
14817;SDS011;7500;57.698;11.986;2022-07-17T01:32:51;17.20;;;3.50;;
14817;SDS011;7500;57.698;11.986;2022-07-17T01:35:18;16.80;;;3.83;;
14817;SDS011;7500;57.698;11.986;2022-07-17T01:37:46;13.53;;;3.40;;
14817;SDS011;7500;57.698;11.986;2022-07-17T01:40:15;20.40;;;3.87;;
14817;SDS011;7500;57.698;11.986;2022-07-17T01:42:45;11.37;;;3.10;;
14817;SDS011;7500;57.698;11.986;2022-07-17T01:45:14;14.20;;;3.83;;
14817;SDS011;7500;57.698;11.986;2022-07-17T01:47:41;12.97;;;3.40;;
14817;SDS011;7500;57.698;11.986;2022-07-17T01:50:09;15.37;;;3.70;;
14817;SDS011;7500;57.698;11.986;2022-07-17T01:52:37;16.53;;;3.97;;
14817;SDS011;7500;57.698;11.986;2022-07-17T01:55:06;20.63;;;4.03;;
14817;SDS011;7500;57.698;11.986;2022-07-17T01:57:36;18.53;;;3.90;;
14817;SDS011;7500;57.698;11.986;2022-07-17T02:00:04;14.10;;;3.63;;
14817;SDS011;7500;57.698;11.986;2022-07-17T02:02:33;12.43;;;3.43;;
14817;SDS011;7500;57.698;11.986;2022-07-17T02:05:00;16.37;;;3.20;;
14817;SDS011;7500;57.698;11.986;2022-07-17T02:07:27;14.13;;;3.67;;
14817;SDS011;7500;57.698;11.986;2022-07-17T02:09:54;15.70;;;3.47;;
14817;SDS011;7500;57.698;11.986;2022-07-17T02:12:21;13.87;;;3.37;;
14817;SDS011;7500;57.698;11.986;2022-07-17T02:14:49;14.43;;;3.70;;
14817;SDS011;7500;57.698;11.986;2022-07-17T02:17:16;13.13;;;3.50;;
14817;SDS011;7500;57.698;11.986;2022-07-17T02:19:42;14.27;;;3.77;;
14817;SDS011;7500;57.698;11.986;2022-07-17T02:22:09;15.27;;;3.40;;
14817;SDS011;7500;57.698;11.986;2022-07-17T02:24:36;16.13;;;3.77;;
14817;SDS011;7500;57.698;11.986;2022-07-17T02:27:03;12.03;;;2.97;;
14817;SDS011;7500;57.698;11.986;2022-07-17T02:29:29;19.80;;;3.60;;
14817;SDS011;7500;57.698;11.986;2022-07-17T02:31:58;18.90;;;3.73;;
14817;SDS011;7500;57.698;11.986;2022-07-17T02:34:25;16.97;;;3.77;;
14817;SDS011;7500;57.698;11.986;2022-07-17T02:36:51;14.87;;;3.83;;
14817;SDS011;7500;57.698;11.986;2022-07-17T02:39:18;14.27;;;3.87;;
14817;SDS011;7500;57.698;11.986;2022-07-17T02:41:45;13.67;;;3.50;;
14817;SDS011;7500;57.698;11.986;2022-07-17T02:44:12;12.33;;;3.40;;
14817;SDS011;7500;57.698;11.986;2022-07-17T02:46:39;15.13;;;3.33;;
14817;SDS011;7500;57.698;11.986;2022-07-17T02:49:07;15.33;;;3.50;;
14817;SDS011;7500;57.698;11.986;2022-07-17T02:51:34;17.93;;;3.73;;
14817;SDS011;7500;57.698;11.986;2022-07-17T02:54:01;13.40;;;3.47;;
14817;SDS011;7500;57.698;11.986;2022-07-17T02:56:27;15.20;;;3.30;;
14817;SDS011;7500;57.698;11.986;2022-07-17T02:58:54;13.73;;;3.43;;
14817;SDS011;7500;57.698;11.986;2022-07-17T03:01:21;14.67;;;3.23;;
14817;SDS011;7500;57.698;11.986;2022-07-17T03:03:48;14.47;;;3.33;;
14817;SDS011;7500;57.698;11.986;2022-07-17T03:06:16;13.53;;;3.90;;
14817;SDS011;7500;57.698;11.986;2022-07-17T03:08:43;17.40;;;3.90;;
14817;SDS011;7500;57.698;11.986;2022-07-17T03:11:09;18.07;;;3.97;;
14817;SDS011;7500;57.698;11.986;2022-07-17T03:13:36;16.77;;;3.60;;
14817;SDS011;7500;57.698;11.986;2022-07-17T03:16:03;11.87;;;3.13;;
14817;SDS011;7500;57.698;11.986;2022-07-17T03:18:30;14.57;;;3.63;;
14817;SDS011;7500;57.698;11.986;2022-07-17T03:20:57;16.83;;;3.27;;
14817;SDS011;7500;57.698;11.986;2022-07-17T03:23:25;13.47;;;3.13;;
14817;SDS011;7500;57.698;11.986;2022-07-17T03:25:52;11.57;;;3.27;;
14817;SDS011;7500;57.698;11.986;2022-07-17T03:28:19;8.83;;;2.57;;
14817;SDS011;7500;57.698;11.986;2022-07-17T03:30:46;12.40;;;3.47;;
14817;SDS011;7500;57.698;11.986;2022-07-17T03:33:13;13.40;;;3.30;;
14817;SDS011;7500;57.698;11.986;2022-07-17T03:35:39;14.57;;;3.47;;
14817;SDS011;7500;57.698;11.986;2022-07-17T03:38:06;13.27;;;3.07;;
14817;SDS011;7500;57.698;11.986;2022-07-17T03:40:34;12.17;;;3.30;;
14817;SDS011;7500;57.698;11.986;2022-07-17T03:43:01;11.30;;;3.17;;
14817;SDS011;7500;57.698;11.986;2022-07-17T03:45:28;14.07;;;3.37;;
14817;SDS011;7500;57.698;11.986;2022-07-17T03:47:55;10.43;;;2.83;;
14817;SDS011;7500;57.698;11.986;2022-07-17T03:50:21;9.07;;;2.97;;
14817;SDS011;7500;57.698;11.986;2022-07-17T03:52:48;12.63;;;3.30;;
14817;SDS011;7500;57.698;11.986;2022-07-17T03:55:15;10.30;;;2.90;;
14817;SDS011;7500;57.698;11.986;2022-07-17T03:57:43;10.33;;;2.80;;
14817;SDS011;7500;57.698;11.986;2022-07-17T04:00:10;11.27;;;3.20;;
14817;SDS011;7500;57.698;11.986;2022-07-17T04:02:37;15.70;;;3.40;;
14817;SDS011;7500;57.698;11.986;2022-07-17T04:05:04;14.07;;;3.13;;
14817;SDS011;7500;57.698;11.986;2022-07-17T04:07:34;9.63;;;2.83;;
14817;SDS011;7500;57.698;11.986;2022-07-17T04:10:01;14.10;;;3.17;;
14817;SDS011;7500;57.698;11.986;2022-07-17T04:12:28;11.27;;;3.00;;
14817;SDS011;7500;57.698;11.986;2022-07-17T04:14:57;10.20;;;2.97;;
14817;SDS011;7500;57.698;11.986;2022-07-17T04:17:24;13.67;;;3.30;;
14817;SDS011;7500;57.698;11.986;2022-07-17T04:19:51;13.00;;;2.97;;
14817;SDS011;7500;57.698;11.986;2022-07-17T04:22:18;11.13;;;2.77;;
14817;SDS011;7500;57.698;11.986;2022-07-17T04:24:45;11.17;;;2.70;;
14817;SDS011;7500;57.698;11.986;2022-07-17T04:27:12;12.07;;;2.87;;
14817;SDS011;7500;57.698;11.986;2022-07-17T04:29:39;8.50;;;2.70;;
14817;SDS011;7500;57.698;11.986;2022-07-17T04:32:08;13.13;;;3.20;;
14817;SDS011;7500;57.698;11.986;2022-07-17T04:34:35;11.30;;;2.77;;
14817;SDS011;7500;57.698;11.986;2022-07-17T04:37:02;10.63;;;2.80;;
14817;SDS011;7500;57.698;11.986;2022-07-17T04:39:29;10.00;;;2.13;;
14817;SDS011;7500;57.698;11.986;2022-07-17T04:41:57;9.40;;;2.33;;
14817;SDS011;7500;57.698;11.986;2022-07-17T04:44:24;11.40;;;2.60;;
14817;SDS011;7500;57.698;11.986;2022-07-17T04:46:50;10.80;;;2.60;;
14817;SDS011;7500;57.698;11.986;2022-07-17T04:49:19;10.17;;;2.17;;
14817;SDS011;7500;57.698;11.986;2022-07-17T04:51:45;6.10;;;1.63;;
14817;SDS011;7500;57.698;11.986;2022-07-17T04:54:12;5.87;;;1.53;;
14817;SDS011;7500;57.698;11.986;2022-07-17T04:56:39;11.87;;;2.10;;
14817;SDS011;7500;57.698;11.986;2022-07-17T04:59:06;5.00;;;1.60;;
14817;SDS011;7500;57.698;11.986;2022-07-17T05:01:33;3.97;;;1.07;;
14817;SDS011;7500;57.698;11.986;2022-07-17T05:04:00;2.53;;;1.00;;
14817;SDS011;7500;57.698;11.986;2022-07-17T05:06:29;4.17;;;0.93;;
14817;SDS011;7500;57.698;11.986;2022-07-17T05:08:56;4.40;;;0.80;;
14817;SDS011;7500;57.698;11.986;2022-07-17T05:11:23;1.97;;;0.60;;
14817;SDS011;7500;57.698;11.986;2022-07-17T05:13:49;5.17;;;0.87;;
14817;SDS011;7500;57.698;11.986;2022-07-17T05:16:16;3.00;;;0.70;;
14817;SDS011;7500;57.698;11.986;2022-07-17T05:18:43;4.10;;;0.80;;
14817;SDS011;7500;57.698;11.986;2022-07-17T05:21:09;2.27;;;0.67;;
14817;SDS011;7500;57.698;11.986;2022-07-17T05:23:38;5.70;;;1.00;;
14817;SDS011;7500;57.698;11.986;2022-07-17T05:26:04;2.43;;;0.60;;
14817;SDS011;7500;57.698;11.986;2022-07-17T05:28:31;2.10;;;0.60;;
14817;SDS011;7500;57.698;11.986;2022-07-17T05:30:58;3.23;;;0.67;;
14817;SDS011;7500;57.698;11.986;2022-07-17T05:33:25;2.63;;;0.80;;
14817;SDS011;7500;57.698;11.986;2022-07-17T05:35:51;2.67;;;0.80;;
14817;SDS011;7500;57.698;11.986;2022-07-17T05:38:18;3.07;;;0.70;;
14817;SDS011;7500;57.698;11.986;2022-07-17T05:40:46;2.80;;;0.90;;
14817;SDS011;7500;57.698;11.986;2022-07-17T05:43:13;2.60;;;0.70;;
14817;SDS011;7500;57.698;11.986;2022-07-17T05:45:40;2.47;;;0.80;;
14817;SDS011;7500;57.698;11.986;2022-07-17T05:48:07;3.90;;;0.90;;
14817;SDS011;7500;57.698;11.986;2022-07-17T05:50:34;2.20;;;0.83;;
14817;SDS011;7500;57.698;11.986;2022-07-17T05:53:01;1.80;;;0.60;;
14817;SDS011;7500;57.698;11.986;2022-07-17T05:55:28;4.80;;;0.80;;
14817;SDS011;7500;57.698;11.986;2022-07-17T05:57:56;2.10;;;0.80;;
14817;SDS011;7500;57.698;11.986;2022-07-17T06:00:23;2.43;;;0.70;;
14817;SDS011;7500;57.698;11.986;2022-07-17T06:02:49;3.37;;;0.73;;
14817;SDS011;7500;57.698;11.986;2022-07-17T06:05:16;4.57;;;0.80;;
14817;SDS011;7500;57.698;11.986;2022-07-17T06:07:43;2.80;;;0.73;;
14817;SDS011;7500;57.698;11.986;2022-07-17T06:10:10;4.63;;;0.83;;
14817;SDS011;7500;57.698;11.986;2022-07-17T06:12:37;3.27;;;0.93;;
14817;SDS011;7500;57.698;11.986;2022-07-17T06:15:05;4.30;;;0.70;;
14817;SDS011;7500;57.698;11.986;2022-07-17T06:17:33;1.83;;;0.70;;
14817;SDS011;7500;57.698;11.986;2022-07-17T06:20:00;4.07;;;0.67;;
14817;SDS011;7500;57.698;11.986;2022-07-17T06:22:26;2.97;;;0.57;;
14817;SDS011;7500;57.698;11.986;2022-07-17T06:24:53;3.37;;;0.70;;
14817;SDS011;7500;57.698;11.986;2022-07-17T06:27:20;2.93;;;0.70;;
14817;SDS011;7500;57.698;11.986;2022-07-17T06:29:47;2.77;;;0.60;;
14817;SDS011;7500;57.698;11.986;2022-07-17T06:32:15;2.27;;;0.50;;
14817;SDS011;7500;57.698;11.986;2022-07-17T06:34:42;1.30;;;0.60;;
14817;SDS011;7500;57.698;11.986;2022-07-17T06:37:09;2.00;;;0.53;;
14817;SDS011;7500;57.698;11.986;2022-07-17T06:39:36;3.10;;;0.60;;
14817;SDS011;7500;57.698;11.986;2022-07-17T06:42:04;2.93;;;0.50;;
14817;SDS011;7500;57.698;11.986;2022-07-17T06:44:31;1.33;;;0.73;;
14817;SDS011;7500;57.698;11.986;2022-07-17T06:46:59;2.17;;;0.30;;
14817;SDS011;7500;57.698;11.986;2022-07-17T06:49:27;3.63;;;0.50;;
14817;SDS011;7500;57.698;11.986;2022-07-17T06:51:54;2.67;;;0.60;;
14817;SDS011;7500;57.698;11.986;2022-07-17T06:54:21;2.43;;;0.63;;
14817;SDS011;7500;57.698;11.986;2022-07-17T06:56:51;2.47;;;0.60;;
14817;SDS011;7500;57.698;11.986;2022-07-17T06:59:18;2.87;;;0.70;;
14817;SDS011;7500;57.698;11.986;2022-07-17T07:01:45;1.30;;;0.50;;
14817;SDS011;7500;57.698;11.986;2022-07-17T07:04:12;1.20;;;0.47;;
14817;SDS011;7500;57.698;11.986;2022-07-17T07:06:41;2.10;;;0.57;;
14817;SDS011;7500;57.698;11.986;2022-07-17T07:09:08;1.90;;;0.80;;
14817;SDS011;7500;57.698;11.986;2022-07-17T07:11:36;2.37;;;0.50;;
14817;SDS011;7500;57.698;11.986;2022-07-17T07:14:04;1.40;;;0.50;;
14817;SDS011;7500;57.698;11.986;2022-07-17T07:16:31;1.87;;;0.70;;
14817;SDS011;7500;57.698;11.986;2022-07-17T07:18:58;1.93;;;0.63;;
14817;SDS011;7500;57.698;11.986;2022-07-17T07:21:25;1.53;;;0.40;;
14817;SDS011;7500;57.698;11.986;2022-07-17T07:23:53;1.60;;;0.50;;
14817;SDS011;7500;57.698;11.986;2022-07-17T07:26:20;0.93;;;0.50;;
14817;SDS011;7500;57.698;11.986;2022-07-17T07:28:47;3.83;;;0.40;;
14817;SDS011;7500;57.698;11.986;2022-07-17T07:31:14;0.93;;;0.70;;
14817;SDS011;7500;57.698;11.986;2022-07-17T07:33:42;1.70;;;0.50;;
14817;SDS011;7500;57.698;11.986;2022-07-17T07:36:08;3.93;;;0.43;;
14817;SDS011;7500;57.698;11.986;2022-07-17T07:38:35;0.60;;;0.40;;
14817;SDS011;7500;57.698;11.986;2022-07-17T07:41:04;1.00;;;0.50;;
14817;SDS011;7500;57.698;11.986;2022-07-17T07:43:30;1.43;;;0.63;;
14817;SDS011;7500;57.698;11.986;2022-07-17T07:45:57;1.30;;;0.70;;
14817;SDS011;7500;57.698;11.986;2022-07-17T07:48:24;3.40;;;0.70;;
14817;SDS011;7500;57.698;11.986;2022-07-17T07:50:51;1.90;;;0.60;;
14817;SDS011;7500;57.698;11.986;2022-07-17T07:53:18;1.70;;;0.50;;
14817;SDS011;7500;57.698;11.986;2022-07-17T07:55:45;3.83;;;0.60;;
14817;SDS011;7500;57.698;11.986;2022-07-17T07:58:13;1.87;;;0.47;;
14817;SDS011;7500;57.698;11.986;2022-07-17T08:00:40;1.57;;;0.80;;
14817;SDS011;7500;57.698;11.986;2022-07-17T08:03:10;1.10;;;0.60;;
14817;SDS011;7500;57.698;11.986;2022-07-17T08:05:37;2.00;;;0.33;;
14817;SDS011;7500;57.698;11.986;2022-07-17T08:08:05;3.10;;;0.43;;
14817;SDS011;7500;57.698;11.986;2022-07-17T08:10:32;1.73;;;0.43;;
14817;SDS011;7500;57.698;11.986;2022-07-17T08:12:59;2.20;;;0.60;;
14817;SDS011;7500;57.698;11.986;2022-07-17T08:15:27;1.83;;;0.60;;
14817;SDS011;7500;57.698;11.986;2022-07-17T08:17:54;0.53;;;0.30;;
14817;SDS011;7500;57.698;11.986;2022-07-17T08:20:21;4.00;;;0.53;;
14817;SDS011;7500;57.698;11.986;2022-07-17T08:22:48;0.93;;;0.37;;
14817;SDS011;7500;57.698;11.986;2022-07-17T08:25:16;2.47;;;0.33;;
14817;SDS011;7500;57.698;11.986;2022-07-17T08:27:43;0.47;;;0.30;;
14817;SDS011;7500;57.698;11.986;2022-07-17T08:30:11;0.70;;;0.40;;
14817;SDS011;7500;57.698;11.986;2022-07-17T08:32:41;1.73;;;0.60;;
14817;SDS011;7500;57.698;11.986;2022-07-17T08:35:08;1.00;;;0.47;;
14817;SDS011;7500;57.698;11.986;2022-07-17T08:37:42;2.40;;;0.40;;
14817;SDS011;7500;57.698;11.986;2022-07-17T08:40:15;1.17;;;0.50;;
14817;SDS011;7500;57.698;11.986;2022-07-17T08:42:43;1.30;;;0.57;;
14817;SDS011;7500;57.698;11.986;2022-07-17T08:45:09;4.07;;;0.60;;
14817;SDS011;7500;57.698;11.986;2022-07-17T08:47:37;0.93;;;0.30;;
14817;SDS011;7500;57.698;11.986;2022-07-17T08:50:05;3.13;;;0.60;;
14817;SDS011;7500;57.698;11.986;2022-07-17T08:52:34;2.43;;;0.97;;
14817;SDS011;7500;57.698;11.986;2022-07-17T08:55:03;1.70;;;0.50;;
14817;SDS011;7500;57.698;11.986;2022-07-17T08:57:31;2.23;;;0.77;;
14817;SDS011;7500;57.698;11.986;2022-07-17T08:59:57;2.07;;;0.47;;
14817;SDS011;7500;57.698;11.986;2022-07-17T09:02:24;1.60;;;0.40;;
14817;SDS011;7500;57.698;11.986;2022-07-17T09:04:54;1.27;;;0.73;;
14817;SDS011;7500;57.698;11.986;2022-07-17T09:07:22;2.77;;;0.73;;
14817;SDS011;7500;57.698;11.986;2022-07-17T09:09:49;1.97;;;0.67;;
14817;SDS011;7500;57.698;11.986;2022-07-17T09:12:16;0.60;;;0.40;;
14817;SDS011;7500;57.698;11.986;2022-07-17T09:14:43;1.50;;;1.00;;
14817;SDS011;7500;57.698;11.986;2022-07-17T09:17:11;2.20;;;0.50;;
14817;SDS011;7500;57.698;11.986;2022-07-17T09:19:39;1.30;;;0.50;;
14817;SDS011;7500;57.698;11.986;2022-07-17T09:22:09;1.73;;;0.50;;
14817;SDS011;7500;57.698;11.986;2022-07-17T09:24:43;2.03;;;0.60;;
14817;SDS011;7500;57.698;11.986;2022-07-17T09:27:11;2.10;;;0.80;;
14817;SDS011;7500;57.698;11.986;2022-07-17T09:29:52;1.17;;;0.40;;
14817;SDS011;7500;57.698;11.986;2022-07-17T09:32:21;1.27;;;0.70;;
14817;SDS011;7500;57.698;11.986;2022-07-17T09:34:50;2.00;;;0.80;;
14817;SDS011;7500;57.698;11.986;2022-07-17T09:37:18;1.67;;;0.70;;
14817;SDS011;7500;57.698;11.986;2022-07-17T09:39:48;2.80;;;1.30;;
14817;SDS011;7500;57.698;11.986;2022-07-17T09:42:23;2.93;;;0.90;;
14817;SDS011;7500;57.698;11.986;2022-07-17T09:45:01;2.50;;;0.70;;
14817;SDS011;7500;57.698;11.986;2022-07-17T09:47:30;2.67;;;0.77;;
14817;SDS011;7500;57.698;11.986;2022-07-17T09:49:58;2.17;;;0.93;;
14817;SDS011;7500;57.698;11.986;2022-07-17T09:52:26;1.03;;;0.73;;
14817;SDS011;7500;57.698;11.986;2022-07-17T09:54:57;1.67;;;0.70;;
14817;SDS011;7500;57.698;11.986;2022-07-17T09:57:25;0.87;;;0.30;;
14817;SDS011;7500;57.698;11.986;2022-07-17T09:59:53;0.90;;;0.43;;
14817;SDS011;7500;57.698;11.986;2022-07-17T10:02:21;0.90;;;0.43;;
14817;SDS011;7500;57.698;11.986;2022-07-17T10:04:50;0.97;;;0.53;;
14817;SDS011;7500;57.698;11.986;2022-07-17T10:07:17;0.80;;;0.67;;
14817;SDS011;7500;57.698;11.986;2022-07-17T10:09:44;1.40;;;0.20;;
14817;SDS011;7500;57.698;11.986;2022-07-17T10:12:13;0.63;;;0.40;;
14817;SDS011;7500;57.698;11.986;2022-07-17T10:14:41;1.00;;;0.40;;
14817;SDS011;7500;57.698;11.986;2022-07-17T10:17:09;0.60;;;0.47;;
14817;SDS011;7500;57.698;11.986;2022-07-17T10:19:43;1.53;;;0.33;;
14817;SDS011;7500;57.698;11.986;2022-07-17T10:22:12;1.03;;;0.50;;
14817;SDS011;7500;57.698;11.986;2022-07-17T10:24:45;1.60;;;0.50;;
14817;SDS011;7500;57.698;11.986;2022-07-17T10:27:19;1.40;;;0.60;;
14817;SDS011;7500;57.698;11.986;2022-07-17T10:29:47;1.10;;;0.70;;
14817;SDS011;7500;57.698;11.986;2022-07-17T10:32:24;0.97;;;0.70;;
14817;SDS011;7500;57.698;11.986;2022-07-17T10:34:52;2.37;;;0.70;;
14817;SDS011;7500;57.698;11.986;2022-07-17T10:37:21;0.77;;;0.57;;
14817;SDS011;7500;57.698;11.986;2022-07-17T10:39:53;1.13;;;0.50;;
14817;SDS011;7500;57.698;11.986;2022-07-17T10:42:38;1.40;;;0.57;;
14817;SDS011;7500;57.698;11.986;2022-07-17T10:45:10;1.17;;;0.50;;
14817;SDS011;7500;57.698;11.986;2022-07-17T10:47:45;0.77;;;0.40;;
14817;SDS011;7500;57.698;11.986;2022-07-17T10:50:14;1.77;;;0.70;;
14817;SDS011;7500;57.698;11.986;2022-07-17T10:52:41;1.37;;;1.00;;
14817;SDS011;7500;57.698;11.986;2022-07-17T10:55:17;1.47;;;0.63;;
14817;SDS011;7500;57.698;11.986;2022-07-17T10:57:46;3.70;;;0.57;;
14817;SDS011;7500;57.698;11.986;2022-07-17T11:00:14;1.73;;;0.90;;
14817;SDS011;7500;57.698;11.986;2022-07-17T11:02:41;3.10;;;1.40;;
14817;SDS011;7500;57.698;11.986;2022-07-17T11:05:08;1.20;;;0.80;;
14817;SDS011;7500;57.698;11.986;2022-07-17T11:07:47;2.27;;;0.77;;
14817;SDS011;7500;57.698;11.986;2022-07-17T11:10:15;0.87;;;0.40;;
14817;SDS011;7500;57.698;11.986;2022-07-17T11:12:42;1.33;;;0.40;;
14817;SDS011;7500;57.698;11.986;2022-07-17T11:15:10;3.97;;;0.73;;
14817;SDS011;7500;57.698;11.986;2022-07-17T11:17:38;3.27;;;0.87;;
14817;SDS011;7500;57.698;11.986;2022-07-17T11:20:10;1.30;;;0.80;;
14817;SDS011;7500;57.698;11.986;2022-07-17T11:22:38;0.87;;;0.60;;
14817;SDS011;7500;57.698;11.986;2022-07-17T11:25:05;2.13;;;0.60;;
14817;SDS011;7500;57.698;11.986;2022-07-17T11:27:33;2.43;;;0.50;;
14817;SDS011;7500;57.698;11.986;2022-07-17T11:30:01;1.30;;;0.63;;
14817;SDS011;7500;57.698;11.986;2022-07-17T11:32:34;1.47;;;0.90;;
14817;SDS011;7500;57.698;11.986;2022-07-17T11:35:02;2.70;;;1.20;;
14817;SDS011;7500;57.698;11.986;2022-07-17T11:37:40;3.13;;;0.80;;
14817;SDS011;7500;57.698;11.986;2022-07-17T11:40:07;0.97;;;0.60;;
14817;SDS011;7500;57.698;11.986;2022-07-17T11:42:34;1.83;;;0.93;;
14817;SDS011;7500;57.698;11.986;2022-07-17T11:45:01;4.37;;;1.33;;
14817;SDS011;7500;57.698;11.986;2022-07-17T11:47:28;3.33;;;0.80;;
14817;SDS011;7500;57.698;11.986;2022-07-17T11:50:04;1.53;;;0.77;;
14817;SDS011;7500;57.698;11.986;2022-07-17T11:52:39;1.20;;;0.60;;
14817;SDS011;7500;57.698;11.986;2022-07-17T11:55:07;1.37;;;0.80;;
14817;SDS011;7500;57.698;11.986;2022-07-17T11:57:41;1.80;;;0.70;;
14817;SDS011;7500;57.698;11.986;2022-07-17T12:00:10;4.40;;;3.20;;
14817;SDS011;7500;57.698;11.986;2022-07-17T12:02:37;4.90;;;2.53;;
14817;SDS011;7500;57.698;11.986;2022-07-17T12:05:06;2.90;;;1.60;;
14817;SDS011;7500;57.698;11.986;2022-07-17T12:07:40;1.70;;;1.00;;
14817;SDS011;7500;57.698;11.986;2022-07-17T12:10:15;3.93;;;2.30;;
14817;SDS011;7500;57.698;11.986;2022-07-17T12:12:54;1.90;;;1.30;;
14817;SDS011;7500;57.698;11.986;2022-07-17T12:18:03;2.60;;;1.30;;
14817;SDS011;7500;57.698;11.986;2022-07-17T12:20:44;0.87;;;0.80;;
14817;SDS011;7500;57.698;11.986;2022-07-17T12:23:25;2.40;;;0.80;;
14817;SDS011;7500;57.698;11.986;2022-07-17T12:26:02;1.17;;;0.80;;
14817;SDS011;7500;57.698;11.986;2022-07-17T12:28:29;3.73;;;1.00;;
14817;SDS011;7500;57.698;11.986;2022-07-17T12:30:56;3.43;;;0.80;;
14817;SDS011;7500;57.698;11.986;2022-07-17T12:33:23;1.77;;;0.93;;
14817;SDS011;7500;57.698;11.986;2022-07-17T12:35:52;3.77;;;1.23;;
14817;SDS011;7500;57.698;11.986;2022-07-17T12:38:18;2.67;;;1.40;;
14817;SDS011;7500;57.698;11.986;2022-07-17T12:40:45;3.87;;;2.10;;
14817;SDS011;7500;57.698;11.986;2022-07-17T12:43:12;2.80;;;1.50;;
14817;SDS011;7500;57.698;11.986;2022-07-17T12:45:39;4.23;;;1.73;;
14817;SDS011;7500;57.698;11.986;2022-07-17T12:48:06;3.93;;;1.80;;
14817;SDS011;7500;57.698;11.986;2022-07-17T12:50:33;3.43;;;1.60;;
14817;SDS011;7500;57.698;11.986;2022-07-17T12:53:01;4.43;;;2.00;;
14817;SDS011;7500;57.698;11.986;2022-07-17T12:55:27;3.73;;;1.70;;
14817;SDS011;7500;57.698;11.986;2022-07-17T12:57:54;4.10;;;1.90;;
14817;SDS011;7500;57.698;11.986;2022-07-17T13:00:21;5.90;;;1.50;;
14817;SDS011;7500;57.698;11.986;2022-07-17T13:02:48;3.67;;;1.33;;
14817;SDS011;7500;57.698;11.986;2022-07-17T13:05:15;9.03;;;1.50;;
14817;SDS011;7500;57.698;11.986;2022-07-17T13:07:42;2.23;;;1.20;;
14817;SDS011;7500;57.698;11.986;2022-07-17T13:10:10;5.00;;;1.90;;
14817;SDS011;7500;57.698;11.986;2022-07-17T13:12:37;5.50;;;1.70;;
14817;SDS011;7500;57.698;11.986;2022-07-17T13:15:04;2.47;;;1.53;;
14817;SDS011;7500;57.698;11.986;2022-07-17T13:17:32;3.17;;;1.57;;
14817;SDS011;7500;57.698;11.986;2022-07-17T13:20:00;2.90;;;1.60;;
14817;SDS011;7500;57.698;11.986;2022-07-17T13:22:27;6.00;;;1.90;;
14817;SDS011;7500;57.698;11.986;2022-07-17T13:24:54;4.40;;;1.70;;
14817;SDS011;7500;57.698;11.986;2022-07-17T13:27:22;4.13;;;1.73;;
14817;SDS011;7500;57.698;11.986;2022-07-17T13:29:49;5.00;;;2.03;;
14817;SDS011;7500;57.698;11.986;2022-07-17T13:32:16;8.70;;;2.03;;
14817;SDS011;7500;57.698;11.986;2022-07-17T13:34:42;6.37;;;2.13;;
14817;SDS011;7500;57.698;11.986;2022-07-17T13:37:09;5.50;;;2.10;;
14817;SDS011;7500;57.698;11.986;2022-07-17T13:39:36;4.87;;;1.90;;
14817;SDS011;7500;57.698;11.986;2022-07-17T13:42:03;6.00;;;1.90;;
14817;SDS011;7500;57.698;11.986;2022-07-17T13:44:31;6.77;;;2.10;;
14817;SDS011;7500;57.698;11.986;2022-07-17T13:46:58;6.03;;;2.10;;
14817;SDS011;7500;57.698;11.986;2022-07-17T13:49:25;6.37;;;2.30;;
14817;SDS011;7500;57.698;11.986;2022-07-17T13:51:52;6.30;;;2.20;;
14817;SDS011;7500;57.698;11.986;2022-07-17T13:54:19;8.37;;;2.77;;
14817;SDS011;7500;57.698;11.986;2022-07-17T13:56:46;10.93;;;2.60;;
14817;SDS011;7500;57.698;11.986;2022-07-17T13:59:13;9.40;;;2.57;;
14817;SDS011;7500;57.698;11.986;2022-07-17T14:01:41;6.37;;;2.57;;
14817;SDS011;7500;57.698;11.986;2022-07-17T14:04:08;7.83;;;3.07;;
14817;SDS011;7500;57.698;11.986;2022-07-17T14:06:34;7.67;;;2.80;;
14817;SDS011;7500;57.698;11.986;2022-07-17T14:09:02;8.20;;;3.10;;
14817;SDS011;7500;57.698;11.986;2022-07-17T14:11:29;8.33;;;2.70;;
14817;SDS011;7500;57.698;11.986;2022-07-17T14:13:56;7.43;;;2.90;;
14817;SDS011;7500;57.698;11.986;2022-07-17T14:16:22;6.93;;;3.00;;
14817;SDS011;7500;57.698;11.986;2022-07-17T14:18:50;8.50;;;2.57;;
14817;SDS011;7500;57.698;11.986;2022-07-17T14:21:27;9.73;;;3.10;;
14817;SDS011;7500;57.698;11.986;2022-07-17T14:23:55;7.43;;;2.80;;
14817;SDS011;7500;57.698;11.986;2022-07-17T14:26:21;8.07;;;2.70;;
14817;SDS011;7500;57.698;11.986;2022-07-17T14:28:48;6.63;;;2.43;;
14817;SDS011;7500;57.698;11.986;2022-07-17T14:31:15;9.50;;;2.87;;
14817;SDS011;7500;57.698;11.986;2022-07-17T14:33:42;8.50;;;2.80;;
14817;SDS011;7500;57.698;11.986;2022-07-17T14:36:11;6.33;;;2.80;;
14817;SDS011;7500;57.698;11.986;2022-07-17T14:38:38;8.20;;;2.67;;
14817;SDS011;7500;57.698;11.986;2022-07-17T14:41:05;10.17;;;2.90;;
14817;SDS011;7500;57.698;11.986;2022-07-17T14:43:32;6.33;;;2.67;;
14817;SDS011;7500;57.698;11.986;2022-07-17T14:45:59;9.20;;;2.67;;
14817;SDS011;7500;57.698;11.986;2022-07-17T14:48:26;8.83;;;2.90;;
14817;SDS011;7500;57.698;11.986;2022-07-17T14:50:52;7.97;;;2.47;;